Time;durP1;ratioP1;P1;durP2;ratioP2;P2;SDS_P1;SDS_P2;PMS_P1;PMS_P2;Temp;Humidity;BMP_temperature;BMP_pressure;BME280_temperature;BME280_humidity;BME280_pressure;Samples;Min_cycle;Max_cycle;Signal;HPM_P1;HPM_P2
2024/01/01 00:00:00;;;;;;;34.35;20.02;;;;;;;;;;5135798;27;20107;-67
2024/01/01 00:02:25;;;;;;;44.80;21.58;;;;;;;;;;5135567;27;20041;-66
2024/01/01 00:04:51;;;;;;;52.63;26.85;;;;;;;;;;5135599;27;20019;-66
2024/01/01 00:07:16;;;;;;;39.88;20.33;;;;;;;;;;5135608;27;20051;-66
2024/01/01 00:09:42;;;;;;;41.75;21.75;;;;;;;;;;5135331;27;20113;-66
2024/01/01 00:12:09;;;;;;;41.33;21.85;;;;;;;;;;5135651;27;20026;-66
2024/01/01 00:14:34;;;;;;;39.38;20.60;;;;;;;;;;5135373;27;20034;-66
2024/01/01 00:17:00;;;;;;;42.60;22.80;;;;;;;;;;5135462;27;20027;-66
2024/01/01 00:19:26;;;;;;;41.92;22.02;;;;;;;;;;5135282;27;20103;-66
2024/01/01 00:21:51;;;;;;;50.95;23.90;;;;;;;;;;5135292;27;20470;-66
2024/01/01 00:24:17;;;;;;;39.92;19.17;;;;;;;;;;5134788;27;20426;-66
2024/01/01 00:26:43;;;;;;;37.45;19.20;;;;;;;;;;5135274;27;20019;-66
2024/01/01 00:29:09;;;;;;;40.67;21.25;;;;;;;;;;5135210;27;20023;-66
2024/01/01 00:31:36;;;;;;;38.08;19.00;;;;;;;;;;5135133;27;20019;-66
2024/01/01 00:34:02;;;;;;;42.53;20.80;;;;;;;;;;5134928;27;20023;-67
2024/01/01 00:36:27;;;;;;;36.80;19.13;;;;;;;;;;5134950;27;20343;-66
2024/01/01 00:38:53;;;;;;;38.15;20.08;;;;;;;;;;5134832;27;20070;-66
2024/01/01 00:41:19;;;;;;;40.80;20.50;;;;;;;;;;5135022;27;20021;-66
2024/01/01 00:43:44;;;;;;;34.45;18.90;;;;;;;;;;5134751;27;20023;-67
2024/01/01 00:46:10;;;;;;;40.97;18.83;;;;;;;;;;5134554;27;20382;-66
2024/01/01 00:48:36;;;;;;;32.42;17.48;;;;;;;;;;5134822;27;20126;-67
2024/01/01 00:51:01;;;;;;;31.15;16.77;;;;;;;;;;5134570;27;20377;-67
2024/01/01 00:53:27;;;;;;;31.33;15.73;;;;;;;;;;5134234;27;20027;-67
2024/01/01 00:55:53;;;;;;;31.42;15.93;;;;;;;;;;5134759;27;20030;-66
2024/01/01 00:58:18;;;;;;;24.77;13.45;;;;;;;;;;5134389;27;20101;-67
2024/01/01 01:00:43;;;;;;;26.60;14.23;;;;;;;;;;5134684;27;20027;-67
2024/01/01 01:03:09;;;;;;;28.13;14.75;;;;;;;;;;5134380;27;20031;-67
2024/01/01 01:05:34;;;;;;;29.85;14.38;;;;;;;;;;5134452;27;20023;-66
2024/01/01 01:08:00;;;;;;;25.23;14.07;;;;;;;;;;5134167;27;20114;-67
2024/01/01 01:10:25;;;;;;;24.60;13.25;;;;;;;;;;5134139;27;20053;-67
2024/01/01 01:12:53;;;;;;;23.92;12.93;;;;;;;;;;5134131;27;20497;-67
2024/01/01 01:15:19;;;;;;;28.58;14.38;;;;;;;;;;5134182;27;20015;-67
2024/01/01 01:17:45;;;;;;;24.52;12.80;;;;;;;;;;5134255;27;20477;-67
2024/01/01 01:20:11;;;;;;;25.83;13.70;;;;;;;;;;5134206;27;20027;-67
2024/01/01 01:22:36;;;;;;;25.80;14.02;;;;;;;;;;5133894;27;20430;-67
2024/01/01 01:25:02;;;;;;;25.45;14.25;;;;;;;;;;5134089;27;20030;-67
2024/01/01 01:27:27;;;;;;;27.08;14.07;;;;;;;;;;5134095;27;20030;-67
2024/01/01 01:29:53;;;;;;;25.27;12.45;;;;;;;;;;5134088;27;20034;-67
2024/01/01 01:32:18;;;;;;;25.80;12.85;;;;;;;;;;5133977;27;20039;-67
2024/01/01 01:34:44;;;;;;;27.55;14.10;;;;;;;;;;5133957;27;20072;-67
2024/01/01 01:37:10;;;;;;;24.33;12.25;;;;;;;;;;5133080;27;20440;-67
2024/01/01 01:39:35;;;;;;;20.70;11.18;;;;;;;;;;5133787;27;20569;-67
2024/01/01 01:42:01;;;;;;;20.20;10.35;;;;;;;;;;5133937;27;20024;-67
2024/01/01 01:44:26;;;;;;;21.92;11.63;;;;;;;;;;5133564;27;20019;-67
2024/01/01 01:46:52;;;;;;;23.52;10.43;;;;;;;;;;5133377;27;20035;-66
2024/01/01 01:49:17;;;;;;;20.48;10.65;;;;;;;;;;5133560;27;20122;-67
2024/01/01 01:51:47;;;;;;;22.13;10.80;;;;;;;;;;5133484;27;20465;-66
2024/01/01 01:54:13;;;;;;;18.63;9.57;;;;;;;;;;5133404;27;20046;-67
2024/01/01 01:56:38;;;;;;;19.27;9.23;;;;;;;;;;5133629;27;20051;-67
2024/01/01 01:59:04;;;;;;;17.73;10.30;;;;;;;;;;5133595;27;20114;-66
2024/01/01 02:01:29;;;;;;;18.48;10.32;;;;;;;;;;5133479;28;20023;-67
2024/01/01 02:03:55;;;;;;;16.73;9.82;;;;;;;;;;5133300;28;20027;-67
2024/01/01 02:06:21;;;;;;;21.30;9.73;;;;;;;;;;5133585;27;20024;-66
2024/01/01 02:08:47;;;;;;;16.27;9.13;;;;;;;;;;5133707;27;20144;-66
2024/01/01 02:11:12;;;;;;;20.25;9.27;;;;;;;;;;5133619;28;20035;-67
2024/01/01 02:13:37;;;;;;;17.77;9.13;;;;;;;;;;5133508;28;20023;-67
2024/01/01 02:16:03;;;;;;;17.27;9.05;;;;;;;;;;5133559;27;20023;-67
2024/01/01 02:18:29;;;;;;;18.95;10.38;;;;;;;;;;5133296;27;20039;-67
2024/01/01 02:20:55;;;;;;;21.20;9.90;;;;;;;;;;5133449;28;20471;-66
2024/01/01 02:23:20;;;;;;;18.48;9.27;;;;;;;;;;5133419;27;20023;-67
2024/01/01 02:25:46;;;;;;;19.67;9.93;;;;;;;;;;5133355;27;20019;-67
2024/01/01 02:28:13;;;;;;;18.55;9.88;;;;;;;;;;5133412;27;20451;-67
2024/01/01 02:30:39;;;;;;;20.05;9.63;;;;;;;;;;5133335;27;20098;-67
2024/01/01 02:33:09;;;;;;;17.08;9.55;;;;;;;;;;5131725;28;20171;-67
2024/01/01 02:35:35;;;;;;;19.63;10.55;;;;;;;;;;5133255;27;20027;-67
2024/01/01 02:38:04;;;;;;;19.33;9.98;;;;;;;;;;5133206;27;20026;-67
2024/01/01 02:40:32;;;;;;;20.00;10.82;;;;;;;;;;5133237;27;20069;-67
2024/01/01 02:43:00;;;;;;;19.77;10.48;;;;;;;;;;5133195;27;20027;-67
2024/01/01 02:45:27;;;;;;;18.40;10.55;;;;;;;;;;5132871;27;20034;-67
2024/01/01 02:47:53;;;;;;;22.02;10.18;;;;;;;;;;5133629;27;20039;-67
2024/01/01 02:50:20;;;;;;;22.08;10.60;;;;;;;;;;5136835;27;20026;-66
2024/01/01 02:52:46;;;;;;;17.60;9.07;;;;;;;;;;5137046;27;20027;-66
2024/01/01 02:55:11;;;;;;;20.45;9.98;;;;;;;;;;5136660;27;20096;-66
2024/01/01 02:57:37;;;;;;;19.42;11.43;;;;;;;;;;5136883;27;20015;-66
2024/01/01 03:00:03;;;;;;;18.92;9.95;;;;;;;;;;5137087;27;20423;-66
2024/01/01 03:02:29;;;;;;;23.67;10.23;;;;;;;;;;5124461;27;20047;-66
2024/01/01 03:04:54;;;;;;;21.42;11.40;;;;;;;;;;5136820;27;20042;-67
2024/01/01 03:07:20;;;;;;;20.45;10.88;;;;;;;;;;5136830;27;20019;-66
2024/01/01 03:09:46;;;;;;;19.83;10.13;;;;;;;;;;5135613;27;20080;-66
2024/01/01 03:12:11;;;;;;;18.50;10.23;;;;;;;;;;5131674;27;20027;-66
2024/01/01 03:14:37;;;;;;;19.13;11.30;;;;;;;;;;5135384;27;20030;-66
2024/01/01 03:17:03;;;;;;;19.10;9.68;;;;;;;;;;5131117;27;20019;-67
2024/01/01 03:19:28;;;;;;;20.50;9.30;;;;;;;;;;5126692;27;20027;-67
2024/01/01 03:21:53;;;;;;;19.88;10.43;;;;;;;;;;5137216;27;20087;-67
2024/01/01 03:24:19;;;;;;;18.35;9.80;;;;;;;;;;5136059;27;20041;-67
2024/01/01 03:26:44;;;;;;;21.00;10.88;;;;;;;;;;5136133;27;20474;-67
2024/01/01 03:29:10;;;;;;;17.77;10.35;;;;;;;;;;5135799;27;20035;-67
2024/01/01 03:31:35;;;;;;;18.88;10.63;;;;;;;;;;5135467;27;20035;-67
2024/01/01 03:34:00;;;;;;;17.83;11.07;;;;;;;;;;5135684;27;20027;-67
2024/01/01 03:36:26;;;;;;;20.77;10.57;;;;;;;;;;5135479;27;20019;-66
2024/01/01 03:38:51;;;;;;;18.85;10.68;;;;;;;;;;5135445;27;20431;-67
2024/01/01 03:41:17;;;;;;;19.60;10.43;;;;;;;;;;5135588;27;20023;-67
2024/01/01 03:43:42;;;;;;;17.85;10.55;;;;;;;;;;5135378;27;20114;-67
2024/01/01 03:46:08;;;;;;;15.80;9.38;;;;;;;;;;5135031;27;20023;-67
2024/01/01 03:48:33;;;;;;;19.55;10.63;;;;;;;;;;5135306;27;20039;-67
2024/01/01 03:50:58;;;;;;;18.85;9.45;;;;;;;;;;5135223;27;20041;-67
2024/01/01 03:53:24;;;;;;;20.17;11.23;;;;;;;;;;5135099;27;20027;-67
2024/01/01 03:55:52;;;;;;;24.90;12.02;;;;;;;;;;5135226;27;20027;-68
2024/01/01 03:58:18;;;;;;;25.95;11.70;;;;;;;;;;5135171;27;20023;-67
2024/01/01 04:00:44;;;;;;;21.02;10.27;;;;;;;;;;5134307;27;20434;-67
2024/01/01 04:03:09;;;;;;;21.88;10.77;;;;;;;;;;5135033;27;20054;-69
2024/01/01 04:05:35;;;;;;;24.73;11.88;;;;;;;;;;5135039;27;20029;-66
2024/01/01 04:08:00;;;;;;;27.13;12.00;;;;;;;;;;5135054;27;20019;-67
2024/01/01 04:10:25;;;;;;;21.08;11.43;;;;;;;;;;5134452;27;20113;-67
2024/01/01 04:12:51;;;;;;;28.48;12.80;;;;;;;;;;5134431;27;20057;-67
2024/01/01 04:15:16;;;;;;;22.77;12.15;;;;;;;;;;5134594;27;20476;-67
2024/01/01 04:17:41;;;;;;;26.98;12.63;;;;;;;;;;5134780;27;20023;-67
2024/01/01 04:20:10;;;;;;;25.00;13.95;;;;;;;;;;5134717;27;20011;-67
2024/01/01 04:22:37;;;;;;;22.08;11.25;;;;;;;;;;5134675;27;20037;-67
2024/01/01 04:25:03;;;;;;;24.63;12.50;;;;;;;;;;5134674;27;20023;-67
2024/01/01 04:27:28;;;;;;;27.88;11.45;;;;;;;;;;5131937;27;20434;-66
2024/01/01 04:29:54;;;;;;;24.10;12.27;;;;;;;;;;5134492;27;21141;-67
2024/01/01 04:32:20;;;;;;;22.52;12.32;;;;;;;;;;5134672;27;20054;-67
2024/01/01 04:34:45;;;;;;;24.13;11.68;;;;;;;;;;5134696;27;20055;-67
2024/01/01 04:37:11;;;;;;;23.73;11.90;;;;;;;;;;5134640;27;20058;-67
2024/01/01 04:39:36;;;;;;;22.30;11.73;;;;;;;;;;5134477;27;20064;-67
2024/01/01 04:42:03;;;;;;;23.02;11.45;;;;;;;;;;5134420;27;20023;-67
2024/01/01 04:44:29;;;;;;;22.77;12.20;;;;;;;;;;5133951;27;20023;-69
2024/01/01 04:46:54;;;;;;;25.17;12.32;;;;;;;;;;5134022;27;20184;-67
2024/01/01 04:49:20;;;;;;;20.83;12.07;;;;;;;;;;5134265;27;20448;-67
2024/01/01 04:51:45;;;;;;;20.67;12.07;;;;;;;;;;5115876;27;20031;-67
2024/01/01 04:54:11;;;;;;;23.83;11.70;;;;;;;;;;5133934;27;20496;-67
2024/01/01 04:56:36;;;;;;;20.33;10.52;;;;;;;;;;5134102;27;20047;-67
2024/01/01 04:59:03;;;;;;;19.90;10.52;;;;;;;;;;5133701;27;20027;-67
2024/01/01 05:01:28;;;;;;;21.30;11.20;;;;;;;;;;5133883;27;20105;-67
2024/01/01 05:03:54;;;;;;;22.77;11.52;;;;;;;;;;5133956;27;20099;-67
2024/01/01 05:06:19;;;;;;;24.83;11.25;;;;;;;;;;5133834;27;20385;-67
2024/01/01 05:08:44;;;;;;;20.85;10.80;;;;;;;;;;5133889;27;20047;-67
2024/01/01 05:11:10;;;;;;;20.05;11.15;;;;;;;;;;5133202;27;20360;-67
2024/01/01 05:13:37;;;;;;;22.27;10.88;;;;;;;;;;5133934;27;20469;-67
2024/01/01 05:16:03;;;;;;;21.88;10.40;;;;;;;;;;5134190;27;20025;-67
2024/01/01 05:18:28;;;;;;;19.20;10.25;;;;;;;;;;5133957;27;20079;-66
2024/01/01 05:20:54;;;;;;;18.95;9.98;;;;;;;;;;5133981;27;20031;-66
2024/01/01 05:23:19;;;;;;;26.85;11.52;;;;;;;;;;5134054;27;20027;-67
2024/01/01 05:25:45;;;;;;;19.70;10.90;;;;;;;;;;5134001;27;20023;-66
2024/01/01 05:28:10;;;;;;;18.58;9.82;;;;;;;;;;5133792;27;20019;-67
2024/01/01 05:30:36;;;;;;;17.38;10.30;;;;;;;;;;5115531;27;20059;-66
2024/01/01 05:33:02;;;;;;;17.90;10.40;;;;;;;;;;5133903;27;20031;-67
2024/01/01 05:35:27;;;;;;;20.00;10.38;;;;;;;;;;5133684;27;20051;-67
2024/01/01 05:37:54;;;;;;;20.50;9.90;;;;;;;;;;5133774;27;20470;-66
2024/01/01 05:40:20;;;;;;;24.10;12.93;;;;;;;;;;5133783;27;20042;-67
2024/01/01 05:42:46;;;;;;;18.30;10.77;;;;;;;;;;5133769;27;20027;-67
2024/01/01 05:45:11;;;;;;;18.70;10.27;;;;;;;;;;5133407;27;20075;-67
2024/01/01 05:47:37;;;;;;;19.65;9.32;;;;;;;;;;5133235;27;20023;-67
2024/01/01 05:50:03;;;;;;;18.23;10.30;;;;;;;;;;5133593;27;20023;-67
2024/01/01 05:52:29;;;;;;;21.75;10.18;;;;;;;;;;5115154;27;20031;-67
2024/01/01 05:54:54;;;;;;;21.00;10.57;;;;;;;;;;5133324;27;20043;-67
2024/01/01 05:57:20;;;;;;;22.73;10.23;;;;;;;;;;5133400;27;20116;-66
2024/01/01 05:59:45;;;;;;;22.42;10.48;;;;;;;;;;5133495;27;20043;-67
2024/01/01 06:02:11;;;;;;;18.75;8.93;;;;;;;;;;5133532;27;20050;-67
2024/01/01 06:04:36;;;;;;;19.13;9.50;;;;;;;;;;5133496;28;20444;-67
2024/01/01 06:07:02;;;;;;;22.77;11.40;;;;;;;;;;5133453;28;20086;-67
2024/01/01 06:09:27;;;;;;;22.00;10.80;;;;;;;;;;5133378;27;20034;-67
2024/01/01 06:11:52;;;;;;;21.95;10.98;;;;;;;;;;5133054;27;20027;-67
2024/01/01 06:14:18;;;;;;;22.13;11.65;;;;;;;;;;5133370;28;20385;-66
2024/01/01 06:16:43;;;;;;;26.20;11.45;;;;;;;;;;5133393;27;20435;-67
2024/01/01 06:19:10;;;;;;;23.67;10.68;;;;;;;;;;5133383;27;20073;-69
2024/01/01 06:21:36;;;;;;;24.58;11.52;;;;;;;;;;5133436;27;20064;-67
2024/01/01 06:24:01;;;;;;;19.83;10.60;;;;;;;;;;5136431;27;20099;-68
2024/01/01 06:26:26;;;;;;;19.80;9.95;;;;;;;;;;5136929;27;20069;-66
2024/01/01 06:28:52;;;;;;;27.17;12.52;;;;;;;;;;5137372;27;20027;-66
2024/01/01 06:31:17;;;;;;;21.52;10.35;;;;;;;;;;5137351;27;20072;-67
2024/01/01 06:33:43;;;;;;;25.13;11.02;;;;;;;;;;5137322;27;20114;-66
2024/01/01 06:36:09;;;;;;;20.88;11.18;;;;;;;;;;5137267;27;20430;-67
2024/01/01 06:38:36;;;;;;;25.05;11.43;;;;;;;;;;5137120;27;20031;-67
2024/01/01 06:41:02;;;;;;;25.58;11.52;;;;;;;;;;5136977;27;20027;-67
2024/01/01 06:43:27;;;;;;;23.33;11.05;;;;;;;;;;5137198;27;20029;-67
2024/01/01 06:45:53;;;;;;;16.92;9.57;;;;;;;;;;5136819;27;20023;-66
2024/01/01 06:48:18;;;;;;;21.75;10.98;;;;;;;;;;5136878;27;20031;-67
2024/01/01 06:50:44;;;;;;;24.67;12.32;;;;;;;;;;5137089;27;20027;-67
2024/01/01 06:53:09;;;;;;;19.83;11.15;;;;;;;;;;5136941;27;20029;-66
2024/01/01 06:55:34;;;;;;;19.92;10.77;;;;;;;;;;5136578;27;20513;-67
2024/01/01 06:58:00;;;;;;;21.88;11.77;;;;;;;;;;5136863;27;20023;-66
2024/01/01 07:00:26;;;;;;;21.42;10.80;;;;;;;;;;5136825;27;20083;-66
2024/01/01 07:02:51;;;;;;;22.88;9.63;;;;;;;;;;5136661;27;20015;-67
2024/01/01 07:05:17;;;;;;;21.40;10.52;;;;;;;;;;5136768;27;20102;-67
2024/01/01 07:07:42;;;;;;;23.40;10.82;;;;;;;;;;5136730;27;20015;-66
2024/01/01 07:10:08;;;;;;;19.33;9.30;;;;;;;;;;5136325;27;20027;-66
2024/01/01 07:12:33;;;;;;;22.90;10.80;;;;;;;;;;5136558;27;20027;-67
2024/01/01 07:15:00;;;;;;;19.63;10.55;;;;;;;;;;5136617;27;20366;-66
2024/01/01 07:17:27;;;;;;;22.30;10.27;;;;;;;;;;5136515;27;20038;-67
2024/01/01 07:19:52;;;;;;;19.05;8.45;;;;;;;;;;5136372;27;20413;-66
2024/01/01 07:22:18;;;;;;;19.95;10.35;;;;;;;;;;5136403;27;20019;-66
2024/01/01 07:24:43;;;;;;;17.42;9.38;;;;;;;;;;5136046;27;20473;-66
2024/01/01 07:27:09;;;;;;;18.67;8.95;;;;;;;;;;5136361;27;20034;-67
2024/01/01 07:29:34;;;;;;;18.83;9.25;;;;;;;;;;5136093;27;20041;-67
2024/01/01 07:32:00;;;;;;;20.40;9.90;;;;;;;;;;5134955;27;20020;-66
2024/01/01 07:34:26;;;;;;;21.42;10.20;;;;;;;;;;5135017;27;20517;-67
2024/01/01 07:36:54;;;;;;;20.30;10.10;;;;;;;;;;5136127;27;20427;-66
2024/01/01 07:39:20;;;;;;;19.40;9.13;;;;;;;;;;5135805;27;20490;-66
2024/01/01 07:41:49;;;;;;;16.80;9.15;;;;;;;;;;5136063;27;20119;-66
2024/01/01 07:44:14;;;;;;;24.00;9.75;;;;;;;;;;5135815;27;20030;-66
2024/01/01 07:46:42;;;;;;;22.88;9.77;;;;;;;;;;5135750;27;20438;-67
2024/01/01 07:49:07;;;;;;;21.95;9.73;;;;;;;;;;5135897;27;20023;-67
2024/01/01 07:51:36;;;;;;;16.83;7.90;;;;;;;;;;5135810;27;20088;-67
2024/01/01 07:54:01;;;;;;;20.23;10.85;;;;;;;;;;5135321;27;20043;-67
2024/01/01 07:56:28;;;;;;;18.17;9.15;;;;;;;;;;5135776;27;20390;-67
2024/01/01 07:58:53;;;;;;;16.67;9.00;;;;;;;;;;5135573;27;20034;-66
2024/01/01 08:01:19;;;;;;;19.15;9.15;;;;;;;;;;5135728;27;20015;-67
2024/01/01 08:03:45;;;;;;;20.42;8.88;;;;;;;;;;5135643;27;20019;-67
2024/01/01 08:06:10;;;;;;;18.98;9.32;;;;;;;;;;5135531;27;20389;-67
2024/01/01 08:08:36;;;;;;;18.98;9.88;;;;;;;;;;5135373;27;20106;-67
2024/01/01 08:11:01;;;;;;;21.75;9.75;;;;;;;;;;5135502;27;20016;-67
2024/01/01 08:13:27;;;;;;;19.88;9.68;;;;;;;;;;5134947;27;20030;-66
2024/01/01 08:15:52;;;;;;;18.27;8.90;;;;;;;;;;5135473;27;20019;-66
2024/01/01 08:18:18;;;;;;;17.33;9.07;;;;;;;;;;5135254;27;20019;-67
2024/01/01 08:20:43;;;;;;;25.08;10.48;;;;;;;;;;5135612;27;20103;-67
2024/01/01 08:23:09;;;;;;;20.88;9.40;;;;;;;;;;5134937;27;20080;-67
2024/01/01 08:25:35;;;;;;;20.15;9.25;;;;;;;;;;5135270;27;20051;-67
2024/01/01 08:28:00;;;;;;;20.10;10.95;;;;;;;;;;5135185;27;20088;-67
2024/01/01 08:30:26;;;;;;;18.48;8.90;;;;;;;;;;5135080;27;20038;-67
2024/01/01 08:32:54;;;;;;;22.88;9.65;;;;;;;;;;5135080;27;20026;-67
2024/01/01 08:35:19;;;;;;;20.40;9.48;;;;;;;;;;5134798;27;20019;-67
2024/01/01 08:37:44;;;;;;;16.02;9.32;;;;;;;;;;5135073;27;20027;-67
2024/01/01 08:40:11;;;;;;;17.58;9.93;;;;;;;;;;5135084;27;20060;-67
2024/01/01 08:42:37;;;;;;;17.30;9.57;;;;;;;;;;5134804;27;20034;-68
2024/01/01 08:45:03;;;;;;;18.67;9.07;;;;;;;;;;5134753;27;20023;-67
2024/01/01 08:47:29;;;;;;;16.15;8.80;;;;;;;;;;5134444;27;20023;-67
2024/01/01 08:49:54;;;;;;;17.52;9.35;;;;;;;;;;5134505;27;20418;-67
2024/01/01 08:52:20;;;;;;;20.13;10.07;;;;;;;;;;5134823;27;20451;-67
2024/01/01 08:54:45;;;;;;;20.65;10.27;;;;;;;;;;5134437;27;20441;-67
2024/01/01 08:57:11;;;;;;;18.75;9.82;;;;;;;;;;5134604;27;20079;-67
2024/01/01 08:59:39;;;;;;;17.58;9.00;;;;;;;;;;5134416;27;20054;-67
2024/01/01 09:02:05;;;;;;;23.58;10.80;;;;;;;;;;5134469;27;20355;-67
2024/01/01 09:04:31;;;;;;;19.55;8.70;;;;;;;;;;5134264;27;20030;-67
2024/01/01 09:06:57;;;;;;;16.25;9.23;;;;;;;;;;5134495;27;20071;-67
2024/01/01 09:09:22;;;;;;;17.30;8.38;;;;;;;;;;5134407;27;20037;-67
2024/01/01 09:11:49;;;;;;;17.98;9.77;;;;;;;;;;5134407;27;20102;-67
2024/01/01 09:14:14;;;;;;;20.15;9.20;;;;;;;;;;5134378;27;20384;-67
2024/01/01 09:16:40;;;;;;;16.65;9.10;;;;;;;;;;5134280;27;20015;-67
2024/01/01 09:19:06;;;;;;;18.42;9.77;;;;;;;;;;5133965;27;20083;-67
2024/01/01 09:21:31;;;;;;;19.73;9.48;;;;;;;;;;5134196;27;20015;-67
2024/01/01 09:24:09;;;;;;;20.50;9.43;;;;;;;;;;5134050;27;20497;-67
2024/01/01 09:26:35;;;;;;;17.05;8.05;;;;;;;;;;5134114;27;20028;-68
2024/01/01 09:29:00;;;;;;;23.80;9.48;;;;;;;;;;5133447;27;20027;-67
2024/01/01 09:31:26;;;;;;;21.85;10.68;;;;;;;;;;5133659;27;20031;-67
2024/01/01 09:33:53;;;;;;;21.38;8.98;;;;;;;;;;5133061;27;20034;-67
2024/01/01 09:36:18;;;;;;;19.70;9.48;;;;;;;;;;5130567;27;20019;-67
2024/01/01 09:38:44;;;;;;;20.02;9.65;;;;;;;;;;5133233;27;20084;-67
2024/01/01 09:41:12;;;;;;;20.35;9.30;;;;;;;;;;5133335;27;20026;-67
2024/01/01 09:43:39;;;;;;;20.67;9.73;;;;;;;;;;5130422;27;20064;-67
2024/01/01 09:46:05;;;;;;;20.58;10.43;;;;;;;;;;5133020;27;20027;-67
2024/01/01 09:48:31;;;;;;;16.88;9.50;;;;;;;;;;5132867;27;20131;-67
2024/01/01 09:50:56;;;;;;;19.25;10.25;;;;;;;;;;5133068;27;20083;-67
2024/01/01 09:53:21;;;;;;;18.83;9.68;;;;;;;;;;5133189;27;20026;-67
2024/01/01 09:55:51;;;;;;;20.30;9.60;;;;;;;;;;5132869;27;20130;-67
2024/01/01 09:58:17;;;;;;;19.33;10.27;;;;;;;;;;5132665;27;20039;-67
2024/01/01 10:00:43;;;;;;;19.02;8.63;;;;;;;;;;5133532;27;20027;-67
2024/01/01 10:03:10;;;;;;;21.13;10.65;;;;;;;;;;5132656;27;20035;-68
2024/01/01 10:05:37;;;;;;;18.63;10.38;;;;;;;;;;5133186;28;20401;-66
2024/01/01 10:08:10;;;;;;;20.45;10.35;;;;;;;;;;5132795;28;20027;-67
2024/01/01 10:10:39;;;;;;;20.15;8.40;;;;;;;;;;5133362;28;20513;-69
2024/01/01 10:13:09;;;;;;;26.03;13.77;;;;;;;;;;5133202;28;20035;-67
2024/01/01 10:15:39;;;;;;;22.35;11.10;;;;;;;;;;5133227;28;20031;-67
2024/01/01 10:18:13;;;;;;;23.07;11.83;;;;;;;;;;5133106;28;20035;-67
2024/01/01 10:20:39;;;;;;;21.98;9.90;;;;;;;;;;5133430;28;20023;-67
2024/01/01 10:23:25;;;;;;;21.08;10.45;;;;;;;;;;5133346;28;20031;-67
2024/01/01 10:26:07;;;;;;;21.63;10.40;;;;;;;;;;5133404;28;20520;-67
2024/01/01 10:28:33;;;;;;;20.80;10.77;;;;;;;;;;5133047;28;20104;-67
2024/01/01 10:31:00;;;;;;;21.92;10.77;;;;;;;;;;5133026;28;20378;-66
2024/01/01 10:33:28;;;;;;;18.83;10.32;;;;;;;;;;5132473;28;20050;-67
2024/01/01 10:35:53;;;;;;;21.40;10.88;;;;;;;;;;5132661;28;20050;-67
2024/01/01 10:38:20;;;;;;;18.60;10.02;;;;;;;;;;5132403;28;20426;-67
2024/01/01 10:40:46;;;;;;;20.92;10.68;;;;;;;;;;5132599;28;20019;-67
2024/01/01 10:43:13;;;;;;;22.77;10.32;;;;;;;;;;5132551;28;20098;-67
2024/01/01 10:45:39;;;;;;;19.35;10.35;;;;;;;;;;5114072;28;20023;-70
2024/01/01 10:48:06;;;;;;;19.00;9.70;;;;;;;;;;5132148;28;20022;-67
2024/01/01 10:50:39;;;;;;;20.83;9.10;;;;;;;;;;5132669;28;20030;-66
2024/01/01 10:53:13;;;;;;;17.23;9.10;;;;;;;;;;5132983;28;20019;-67
2024/01/01 10:56:01;;;;;;;15.68;8.57;;;;;;;;;;5132844;28;20111;-66
2024/01/01 10:58:43;;;;;;;15.90;9.02;;;;;;;;;;5132948;28;20042;-69
2024/01/01 11:01:13;;;;;;;16.75;8.65;;;;;;;;;;5132881;28;20034;-68
2024/01/01 11:03:41;;;;;;;19.17;9.48;;;;;;;;;;5132838;28;20031;-68
2024/01/01 11:06:33;;;;;;;17.08;9.38;;;;;;;;;;5132955;27;20065;-66
2024/01/01 11:09:20;;;;;;;15.98;8.65;;;;;;;;;;5131549;27;20019;-66
2024/01/01 11:11:50;;;;;;;18.95;8.90;;;;;;;;;;5123453;27;20039;-66
2024/01/01 11:14:38;;;;;;;15.98;8.23;;;;;;;;;;5115923;28;20043;-66
2024/01/01 11:17:09;;;;;;;18.67;8.77;;;;;;;;;;5133805;27;20042;-66
2024/01/01 11:19:46;;;;;;;18.42;8.85;;;;;;;;;;5117968;27;20426;-66
2024/01/01 11:22:20;;;;;;;16.45;8.77;;;;;;;;;;5136327;27;20054;-66
2024/01/01 11:24:50;;;;;;;19.15;7.95;;;;;;;;;;5136211;27;20039;-69
2024/01/01 11:27:31;;;;;;;12.57;7.23;;;;;;;;;;5136215;27;20378;-68
2024/01/01 11:30:03;;;;;;;13.20;6.93;;;;;;;;;;5135996;27;20027;-68
2024/01/01 11:32:28;;;;;;;14.68;7.28;;;;;;;;;;5136046;27;20474;-66
2024/01/01 11:35:07;;;;;;;13.55;6.85;;;;;;;;;;5135790;27;20038;-66
2024/01/01 11:37:34;;;;;;;14.18;7.15;;;;;;;;;;5135816;27;20027;-65
2024/01/01 11:40:04;;;;;;;15.27;7.10;;;;;;;;;;5135972;27;20027;-69
2024/01/01 11:42:30;;;;;;;13.68;6.75;;;;;;;;;;5135920;27;20145;-68
2024/01/01 11:45:24;;;;;;;14.38;7.30;;;;;;;;;;5135318;27;20036;-66
2024/01/01 11:47:50;;;;;;;14.48;6.18;;;;;;;;;;5113430;27;20054;-66
2024/01/01 11:50:15;;;;;;;11.02;6.82;;;;;;;;;;5135683;27;20031;-68
2024/01/01 11:52:40;;;;;;;14.05;7.60;;;;;;;;;;5135665;27;20466;-65
2024/01/01 11:55:06;;;;;;;16.73;7.90;;;;;;;;;;5135269;27;20420;-68
2024/01/01 11:57:32;;;;;;;13.45;7.35;;;;;;;;;;5135545;27;20027;-66
2024/01/01 11:59:57;;;;;;;14.18;6.60;;;;;;;;;;5135350;27;20085;-66
2024/01/01 12:02:23;;;;;;;14.23;7.03;;;;;;;;;;5135272;27;20027;-65
2024/01/01 12:04:54;;;;;;;13.73;6.63;;;;;;;;;;5135270;27;20106;-66
2024/01/01 12:07:29;;;;;;;16.27;6.82;;;;;;;;;;5135337;27;20019;-66
2024/01/01 12:10:14;;;;;;;16.25;6.63;;;;;;;;;;5116835;27;20019;-66
2024/01/01 12:12:41;;;;;;;15.15;6.50;;;;;;;;;;5135403;27;20025;-68
2024/01/01 12:15:18;;;;;;;13.82;6.55;;;;;;;;;;5134786;27;20110;-67
2024/01/01 12:17:49;;;;;;;12.38;6.88;;;;;;;;;;5135037;27;20075;-66
2024/01/01 12:20:20;;;;;;;15.32;6.72;;;;;;;;;;5134342;27;20027;-65
2024/01/01 12:22:48;;;;;;;15.18;6.82;;;;;;;;;;5135066;27;20226;-66
2024/01/01 12:25:19;;;;;;;11.68;6.50;;;;;;;;;;5134820;27;20039;-66
2024/01/01 12:28:00;;;;;;;14.05;6.45;;;;;;;;;;5134705;27;20019;-66
2024/01/01 12:30:27;;;;;;;11.98;6.35;;;;;;;;;;5134898;27;20019;-66
2024/01/01 12:32:57;;;;;;;11.50;5.40;;;;;;;;;;5134838;27;20075;-66
2024/01/01 12:35:22;;;;;;;12.82;6.10;;;;;;;;;;5135093;27;20050;-66
2024/01/01 12:37:48;;;;;;;11.93;5.80;;;;;;;;;;5134701;27;20074;-66
2024/01/01 12:40:14;;;;;;;15.65;6.40;;;;;;;;;;5134788;27;20027;-66
2024/01/01 12:42:40;;;;;;;12.63;6.10;;;;;;;;;;5134442;27;20027;-66
2024/01/01 12:45:05;;;;;;;15.32;6.25;;;;;;;;;;5134459;27;20088;-66
2024/01/01 12:47:31;;;;;;;13.50;6.28;;;;;;;;;;5134458;27;20074;-68
2024/01/01 12:49:56;;;;;;;10.70;5.50;;;;;;;;;;5134494;27;20027;-65
2024/01/01 12:52:21;;;;;;;13.73;5.55;;;;;;;;;;5134760;27;20027;-66
2024/01/01 12:54:47;;;;;;;12.10;5.80;;;;;;;;;;5134224;27;20035;-68
2024/01/01 12:57:12;;;;;;;12.32;5.85;;;;;;;;;;5134268;27;20029;-68
2024/01/01 12:59:38;;;;;;;11.27;5.30;;;;;;;;;;5134240;27;20061;-68
2024/01/01 13:02:04;;;;;;;11.55;4.97;;;;;;;;;;5134290;27;20089;-67
2024/01/01 13:04:29;;;;;;;13.48;5.38;;;;;;;;;;5134188;27;20076;-68
2024/01/01 13:06:55;;;;;;;13.75;6.15;;;;;;;;;;5134252;27;20102;-67
2024/01/01 13:09:22;;;;;;;11.60;5.25;;;;;;;;;;5134421;27;20046;-67
2024/01/01 13:11:48;;;;;;;11.38;5.97;;;;;;;;;;5134080;27;20418;-68
2024/01/01 13:14:13;;;;;;;9.88;5.07;;;;;;;;;;5133966;27;20023;-68
2024/01/01 13:16:39;;;;;;;10.73;4.70;;;;;;;;;;5134222;27;20086;-67
2024/01/01 13:19:04;;;;;;;9.75;4.32;;;;;;;;;;5133852;27;20389;-68
2024/01/01 13:21:29;;;;;;;15.73;5.65;;;;;;;;;;5134068;27;20026;-68
2024/01/01 13:23:56;;;;;;;9.18;4.40;;;;;;;;;;5133974;27;20027;-67
2024/01/01 13:26:22;;;;;;;8.57;4.40;;;;;;;;;;5133740;27;20023;-67
2024/01/01 13:28:47;;;;;;;11.07;4.57;;;;;;;;;;5134017;27;20050;-67
2024/01/01 13:31:13;;;;;;;7.57;3.83;;;;;;;;;;5133802;27;20172;-68
2024/01/01 13:33:38;;;;;;;10.02;4.10;;;;;;;;;;5132919;27;20087;-67
2024/01/01 13:36:04;;;;;;;9.48;3.70;;;;;;;;;;5115429;27;20023;-68
2024/01/01 13:38:30;;;;;;;7.65;3.78;;;;;;;;;;5133622;27;20037;-67
2024/01/01 13:40:55;;;;;;;10.52;4.13;;;;;;;;;;5133242;27;20031;-68
2024/01/01 13:43:21;;;;;;;7.03;3.92;;;;;;;;;;5133613;27;20470;-68
2024/01/01 13:45:47;;;;;;;11.70;3.90;;;;;;;;;;5133247;27;20378;-67
2024/01/01 13:48:13;;;;;;;8.63;3.90;;;;;;;;;;5133574;27;20036;-68
2024/01/01 13:50:39;;;;;;;7.00;3.88;;;;;;;;;;5133532;27;20025;-67
2024/01/01 13:53:05;;;;;;;9.93;4.30;;;;;;;;;;5133489;27;20027;-67
2024/01/01 13:55:35;;;;;;;10.20;4.28;;;;;;;;;;5133249;27;20047;-68
2024/01/01 13:58:05;;;;;;;9.18;4.25;;;;;;;;;;5133415;27;20485;-68
2024/01/01 14:00:31;;;;;;;9.82;3.75;;;;;;;;;;5133384;27;20143;-68
2024/01/01 14:02:56;;;;;;;8.15;3.70;;;;;;;;;;5133118;27;20027;-66
2024/01/01 14:05:22;;;;;;;6.90;3.78;;;;;;;;;;5133384;27;20015;-69
2024/01/01 14:07:49;;;;;;;12.05;4.25;;;;;;;;;;5133277;28;20366;-66
2024/01/01 14:10:16;;;;;;;14.70;4.18;;;;;;;;;;5133184;28;20108;-66
2024/01/01 14:12:41;;;;;;;12.70;4.55;;;;;;;;;;5133199;28;20038;-66
2024/01/01 14:15:07;;;;;;;9.27;3.60;;;;;;;;;;5133168;28;20428;-68
2024/01/01 14:17:33;;;;;;;6.95;4.13;;;;;;;;;;5133025;28;20023;-67
2024/01/01 14:19:58;;;;;;;7.47;4.43;;;;;;;;;;5133009;28;20031;-66